sensor_id;sensor_type;location;lat;lon;timestamp;P1;durP1;ratioP1;P2;durP2;ratioP2
10403;SDS011;5248;47.374;8.486;2023-03-21T00:01:31;2.27;;;1.47;;
10403;SDS011;5248;47.374;8.486;2023-03-21T00:03:58;2.43;;;1.40;;
10403;SDS011;5248;47.374;8.486;2023-03-21T00:06:25;3.33;;;1.40;;
10403;SDS011;5248;47.374;8.486;2023-03-21T00:08:51;2.53;;;1.53;;
10403;SDS011;5248;47.374;8.486;2023-03-21T00:11:17;1.73;;;1.53;;
10403;SDS011;5248;47.374;8.486;2023-03-21T00:13:46;1.53;;;1.43;;
10403;SDS011;5248;47.374;8.486;2023-03-21T00:16:14;2.50;;;1.50;;
10403;SDS011;5248;47.374;8.486;2023-03-21T00:18:41;2.03;;;1.60;;
10403;SDS011;5248;47.374;8.486;2023-03-21T00:21:11;1.63;;;1.53;;
10403;SDS011;5248;47.374;8.486;2023-03-21T00:23:39;3.57;;;1.70;;
10403;SDS011;5248;47.374;8.486;2023-03-21T00:26:06;2.87;;;1.33;;
10403;SDS011;5248;47.374;8.486;2023-03-21T00:28:34;1.83;;;1.70;;
10403;SDS011;5248;47.374;8.486;2023-03-21T00:31:02;3.03;;;1.60;;
10403;SDS011;5248;47.374;8.486;2023-03-21T00:33:29;2.70;;;1.50;;
10403;SDS011;5248;47.374;8.486;2023-03-21T00:36:01;1.93;;;1.70;;
10403;SDS011;5248;47.374;8.486;2023-03-21T00:38:31;1.83;;;1.50;;
10403;SDS011;5248;47.374;8.486;2023-03-21T00:40:58;2.23;;;1.40;;
10403;SDS011;5248;47.374;8.486;2023-03-21T00:43:24;2.83;;;1.97;;
10403;SDS011;5248;47.374;8.486;2023-03-21T00:45:54;3.53;;;2.23;;
10403;SDS011;5248;47.374;8.486;2023-03-21T00:48:23;2.13;;;1.93;;
10403;SDS011;5248;47.374;8.486;2023-03-21T00:50:50;2.00;;;1.90;;
10403;SDS011;5248;47.374;8.486;2023-03-21T00:53:21;2.03;;;1.93;;
10403;SDS011;5248;47.374;8.486;2023-03-21T00:55:48;4.37;;;2.00;;
10403;SDS011;5248;47.374;8.486;2023-03-21T00:58:15;1.90;;;1.80;;
10403;SDS011;5248;47.374;8.486;2023-03-21T01:00:42;2.80;;;1.90;;
10403;SDS011;5248;47.374;8.486;2023-03-21T01:16:12;2.40;;;2.20;;
10403;SDS011;5248;47.374;8.486;2023-03-21T01:18:39;2.30;;;2.20;;
10403;SDS011;5248;47.374;8.486;2023-03-21T01:21:08;2.73;;;2.47;;
10403;SDS011;5248;47.374;8.486;2023-03-21T01:23:37;2.07;;;1.87;;
10403;SDS011;5248;47.374;8.486;2023-03-21T01:26:05;2.20;;;2.10;;
10403;SDS011;5248;47.374;8.486;2023-03-21T01:28:33;2.07;;;1.90;;
10403;SDS011;5248;47.374;8.486;2023-03-21T01:31:00;2.70;;;1.77;;
10403;SDS011;5248;47.374;8.486;2023-03-21T01:33:29;2.43;;;2.23;;
10403;SDS011;5248;47.374;8.486;2023-03-21T01:35:56;2.73;;;2.20;;
10403;SDS011;5248;47.374;8.486;2023-03-21T01:38:24;4.23;;;2.37;;
10403;SDS011;5248;47.374;8.486;2023-03-21T01:40:50;1.97;;;1.80;;
10403;SDS011;5248;47.374;8.486;2023-03-21T01:43:20;1.90;;;1.80;;
10403;SDS011;5248;47.374;8.486;2023-03-21T01:48:47;2.13;;;2.03;;
10403;SDS011;5248;47.374;8.486;2023-03-21T01:51:17;2.57;;;2.10;;
10403;SDS011;5248;47.374;8.486;2023-03-21T01:53:44;3.53;;;2.30;;
10403;SDS011;5248;47.374;8.486;2023-03-21T01:56:12;2.97;;;2.50;;
10403;SDS011;5248;47.374;8.486;2023-03-21T01:58:43;2.70;;;2.30;;
10403;SDS011;5248;47.374;8.486;2023-03-21T02:01:10;2.13;;;2.00;;
10403;SDS011;5248;47.374;8.486;2023-03-21T02:03:37;2.40;;;2.20;;
10403;SDS011;5248;47.374;8.486;2023-03-21T02:06:16;3.60;;;2.33;;
10403;SDS011;5248;47.374;8.486;2023-03-21T02:08:48;2.20;;;2.00;;
10403;SDS011;5248;47.374;8.486;2023-03-21T02:11:16;3.47;;;1.70;;
10403;SDS011;5248;47.374;8.486;2023-03-21T02:13:43;2.30;;;2.00;;
10403;SDS011;5248;47.374;8.486;2023-03-21T02:16:11;1.83;;;1.57;;
10403;SDS011;5248;47.374;8.486;2023-03-21T02:18:41;2.70;;;2.00;;
10403;SDS011;5248;47.374;8.486;2023-03-21T02:21:23;2.00;;;1.83;;
10403;SDS011;5248;47.374;8.486;2023-03-21T02:24:28;1.73;;;1.60;;
10403;SDS011;5248;47.374;8.486;2023-03-21T02:27:06;3.00;;;1.73;;
10403;SDS011;5248;47.374;8.486;2023-03-21T02:29:56;2.00;;;1.90;;
10403;SDS011;5248;47.374;8.486;2023-03-21T02:32:35;2.43;;;1.87;;
10403;SDS011;5248;47.374;8.486;2023-03-21T02:35:12;2.20;;;2.10;;
10403;SDS011;5248;47.374;8.486;2023-03-21T02:37:50;3.70;;;2.03;;
10403;SDS011;5248;47.374;8.486;2023-03-21T02:40:19;1.80;;;1.70;;
10403;SDS011;5248;47.374;8.486;2023-03-21T02:42:52;1.67;;;1.57;;
10403;SDS011;5248;47.374;8.486;2023-03-21T02:45:24;1.73;;;1.63;;
10403;SDS011;5248;47.374;8.486;2023-03-21T02:47:53;2.00;;;1.80;;
10403;SDS011;5248;47.374;8.486;2023-03-21T02:50:25;2.43;;;1.83;;
10403;SDS011;5248;47.374;8.486;2023-03-21T02:52:56;1.67;;;1.57;;
10403;SDS011;5248;47.374;8.486;2023-03-21T02:55:26;2.70;;;1.67;;
10403;SDS011;5248;47.374;8.486;2023-03-21T02:57:56;1.63;;;1.53;;
10403;SDS011;5248;47.374;8.486;2023-03-21T03:00:24;1.90;;;1.43;;
10403;SDS011;5248;47.374;8.486;2023-03-21T03:02:52;2.27;;;1.60;;
10403;SDS011;5248;47.374;8.486;2023-03-21T03:05:20;2.43;;;2.07;;
10403;SDS011;5248;47.374;8.486;2023-03-21T03:07:59;1.90;;;1.80;;
10403;SDS011;5248;47.374;8.486;2023-03-21T03:10:34;2.60;;;2.00;;
10403;SDS011;5248;47.374;8.486;2023-03-21T03:13:08;1.80;;;1.70;;
10403;SDS011;5248;47.374;8.486;2023-03-21T03:15:43;2.40;;;2.20;;
10403;SDS011;5248;47.374;8.486;2023-03-21T03:18:18;2.63;;;1.60;;
10403;SDS011;5248;47.374;8.486;2023-03-21T03:20:48;2.13;;;1.70;;
10403;SDS011;5248;47.374;8.486;2023-03-21T03:23:27;2.07;;;1.97;;
10403;SDS011;5248;47.374;8.486;2023-03-21T03:25:56;2.60;;;2.17;;
10403;SDS011;5248;47.374;8.486;2023-03-21T03:28:26;2.00;;;1.90;;
10403;SDS011;5248;47.374;8.486;2023-03-21T03:30:56;2.53;;;2.10;;
10403;SDS011;5248;47.374;8.486;2023-03-21T03:33:29;2.20;;;2.00;;
10403;SDS011;5248;47.374;8.486;2023-03-21T03:35:56;1.80;;;1.70;;
10403;SDS011;5248;47.374;8.486;2023-03-21T03:38:25;2.73;;;1.63;;
10403;SDS011;5248;47.374;8.486;2023-03-21T03:40:55;1.47;;;1.47;;
10403;SDS011;5248;47.374;8.486;2023-03-21T03:43:25;3.60;;;1.77;;
10403;SDS011;5248;47.374;8.486;2023-03-21T03:45:57;2.00;;;1.80;;
10403;SDS011;5248;47.374;8.486;2023-03-21T03:48:26;4.63;;;2.03;;
10403;SDS011;5248;47.374;8.486;2023-03-21T03:51:09;2.10;;;2.00;;
10403;SDS011;5248;47.374;8.486;2023-03-21T03:53:42;2.03;;;1.90;;
10403;SDS011;5248;47.374;8.486;2023-03-21T03:56:10;3.10;;;2.10;;
10403;SDS011;5248;47.374;8.486;2023-03-21T03:58:37;3.00;;;2.23;;
10403;SDS011;5248;47.374;8.486;2023-03-21T04:01:05;2.50;;;2.30;;
10403;SDS011;5248;47.374;8.486;2023-03-21T04:03:33;2.30;;;2.20;;
10403;SDS011;5248;47.374;8.486;2023-03-21T04:06:01;2.60;;;2.40;;
10403;SDS011;5248;47.374;8.486;2023-03-21T04:08:30;2.10;;;1.90;;
10403;SDS011;5248;47.374;8.486;2023-03-21T04:11:05;2.13;;;2.00;;
10403;SDS011;5248;47.374;8.486;2023-03-21T04:13:33;2.60;;;2.23;;
10403;SDS011;5248;47.374;8.486;2023-03-21T04:15:59;2.63;;;2.43;;
10403;SDS011;5248;47.374;8.486;2023-03-21T04:18:26;2.40;;;2.30;;
10403;SDS011;5248;47.374;8.486;2023-03-21T04:20:53;2.03;;;1.93;;
10403;SDS011;5248;47.374;8.486;2023-03-21T04:23:20;2.13;;;1.90;;
10403;SDS011;5248;47.374;8.486;2023-03-21T04:25:51;4.07;;;2.30;;
10403;SDS011;5248;47.374;8.486;2023-03-21T04:28:23;2.30;;;1.97;;
10403;SDS011;5248;47.374;8.486;2023-03-21T04:30:52;3.80;;;2.50;;
10403;SDS011;5248;47.374;8.486;2023-03-21T04:33:21;4.47;;;2.70;;
10403;SDS011;5248;47.374;8.486;2023-03-21T04:35:50;2.50;;;2.30;;
10403;SDS011;5248;47.374;8.486;2023-03-21T04:38:20;2.60;;;2.40;;
10403;SDS011;5248;47.374;8.486;2023-03-21T04:40:47;2.53;;;2.33;;
10403;SDS011;5248;47.374;8.486;2023-03-21T04:43:15;3.07;;;2.47;;
10403;SDS011;5248;47.374;8.486;2023-03-21T04:45:43;2.40;;;2.20;;
10403;SDS011;5248;47.374;8.486;2023-03-21T04:48:11;2.90;;;2.70;;
10403;SDS011;5248;47.374;8.486;2023-03-21T04:50:41;2.47;;;2.37;;
10403;SDS011;5248;47.374;8.486;2023-03-21T04:53:10;2.93;;;2.53;;
10403;SDS011;5248;47.374;8.486;2023-03-21T04:55:38;3.23;;;3.00;;
10403;SDS011;5248;47.374;8.486;2023-03-21T04:58:05;2.50;;;2.40;;
10403;SDS011;5248;47.374;8.486;2023-03-21T05:00:34;3.00;;;2.47;;
10403;SDS011;5248;47.374;8.486;2023-03-21T05:03:03;2.93;;;2.60;;
10403;SDS011;5248;47.374;8.486;2023-03-21T05:05:33;2.83;;;2.63;;
10403;SDS011;5248;47.374;8.486;2023-03-21T05:08:01;3.00;;;2.80;;
10403;SDS011;5248;47.374;8.486;2023-03-21T05:10:31;3.40;;;2.80;;
10403;SDS011;5248;47.374;8.486;2023-03-21T05:12:58;2.67;;;2.53;;
10403;SDS011;5248;47.374;8.486;2023-03-21T05:15:30;3.33;;;3.00;;
10403;SDS011;5248;47.374;8.486;2023-03-21T05:17:56;3.20;;;2.90;;
10403;SDS011;5248;47.374;8.486;2023-03-21T05:20:37;4.23;;;3.00;;
10403;SDS011;5248;47.374;8.486;2023-03-21T05:23:07;4.10;;;3.20;;
10403;SDS011;5248;47.374;8.486;2023-03-21T05:25:35;5.13;;;4.63;;
10403;SDS011;5248;47.374;8.486;2023-03-21T05:28:02;3.10;;;2.90;;
10403;SDS011;5248;47.374;8.486;2023-03-21T05:30:30;3.07;;;2.77;;
10403;SDS011;5248;47.374;8.486;2023-03-21T05:32:57;3.07;;;2.83;;
10403;SDS011;5248;47.374;8.486;2023-03-21T05:35:24;3.40;;;3.10;;
10403;SDS011;5248;47.374;8.486;2023-03-21T05:37:53;2.93;;;2.73;;
10403;SDS011;5248;47.374;8.486;2023-03-21T05:40:19;3.17;;;2.97;;
10403;SDS011;5248;47.374;8.486;2023-03-21T05:42:46;3.53;;;3.23;;
10403;SDS011;5248;47.374;8.486;2023-03-21T05:45:13;3.93;;;3.53;;
10403;SDS011;5248;47.374;8.486;2023-03-21T05:47:41;3.57;;;3.27;;
10403;SDS011;5248;47.374;8.486;2023-03-21T05:50:08;3.83;;;3.50;;
10403;SDS011;5248;47.374;8.486;2023-03-21T05:52:38;3.67;;;3.37;;
10403;SDS011;5248;47.374;8.486;2023-03-21T05:55:07;4.33;;;3.93;;
10403;SDS011;5248;47.374;8.486;2023-03-21T05:57:34;3.97;;;3.67;;
10403;SDS011;5248;47.374;8.486;2023-03-21T06:00:04;4.57;;;4.00;;
10403;SDS011;5248;47.374;8.486;2023-03-21T06:02:33;7.13;;;4.03;;
10403;SDS011;5248;47.374;8.486;2023-03-21T06:05:02;4.60;;;4.20;;
10403;SDS011;5248;47.374;8.486;2023-03-21T06:07:30;4.80;;;4.37;;
10403;SDS011;5248;47.374;8.486;2023-03-21T06:09:59;4.27;;;3.97;;
10403;SDS011;5248;47.374;8.486;2023-03-21T06:12:31;5.83;;;3.97;;
10403;SDS011;5248;47.374;8.486;2023-03-21T06:14:59;3.80;;;3.50;;
10403;SDS011;5248;47.374;8.486;2023-03-21T06:17:25;3.57;;;3.37;;
10403;SDS011;5248;47.374;8.486;2023-03-21T06:19:53;3.93;;;3.63;;
10403;SDS011;5248;47.374;8.486;2023-03-21T06:22:20;4.17;;;3.30;;
10403;SDS011;5248;47.374;8.486;2023-03-21T06:24:47;4.50;;;3.67;;
10403;SDS011;5248;47.374;8.486;2023-03-21T06:27:14;3.97;;;3.60;;
10403;SDS011;5248;47.374;8.486;2023-03-21T06:29:42;3.80;;;3.03;;
10403;SDS011;5248;47.374;8.486;2023-03-21T06:32:12;3.77;;;3.33;;
10403;SDS011;5248;47.374;8.486;2023-03-21T06:34:38;4.63;;;3.13;;
10403;SDS011;5248;47.374;8.486;2023-03-21T06:37:06;3.53;;;2.97;;
10403;SDS011;5248;47.374;8.486;2023-03-21T06:39:34;3.40;;;3.10;;
10403;SDS011;5248;47.374;8.486;2023-03-21T06:42:01;9.03;;;8.13;;
10403;SDS011;5248;47.374;8.486;2023-03-21T06:44:28;6.07;;;4.33;;
10403;SDS011;5248;47.374;8.486;2023-03-21T06:46:56;3.63;;;3.40;;
10403;SDS011;5248;47.374;8.486;2023-03-21T06:49:24;4.07;;;3.10;;
10403;SDS011;5248;47.374;8.486;2023-03-21T06:51:51;3.45;;;3.25;;
10403;SDS011;5248;47.374;8.486;2023-03-21T06:54:18;5.50;;;3.80;;
10403;SDS011;5248;47.374;8.486;2023-03-21T06:56:46;3.85;;;3.30;;
10403;SDS011;5248;47.374;8.486;2023-03-21T06:59:12;3.03;;;2.83;;
10403;SDS011;5248;47.374;8.486;2023-03-21T07:01:39;4.35;;;3.30;;
10403;SDS011;5248;47.374;8.486;2023-03-21T07:04:08;4.00;;;3.03;;
10403;SDS011;5248;47.374;8.486;2023-03-21T07:06:34;3.85;;;3.20;;
10403;SDS011;5248;47.374;8.486;2023-03-21T07:09:02;3.70;;;3.33;;
10403;SDS011;5248;47.374;8.486;2023-03-21T07:11:29;4.25;;;3.33;;
10403;SDS011;5248;47.374;8.486;2023-03-21T07:13:56;4.80;;;3.50;;
10403;SDS011;5248;47.374;8.486;2023-03-21T07:16:23;6.82;;;3.90;;
10403;SDS011;5248;47.374;8.486;2023-03-21T07:18:50;4.07;;;3.60;;
10403;SDS011;5248;47.374;8.486;2023-03-21T07:21:18;4.13;;;3.77;;
10403;SDS011;5248;47.374;8.486;2023-03-21T07:23:46;4.37;;;3.93;;
10403;SDS011;5248;47.374;8.486;2023-03-21T07:26:14;4.17;;;3.73;;
10403;SDS011;5248;47.374;8.486;2023-03-21T07:28:42;4.97;;;3.90;;
10403;SDS011;5248;47.374;8.486;2023-03-21T07:31:11;5.67;;;4.47;;
10403;SDS011;5248;47.374;8.486;2023-03-21T07:33:43;8.40;;;5.50;;
10403;SDS011;5248;47.374;8.486;2023-03-21T07:36:13;7.57;;;5.70;;
10403;SDS011;5248;47.374;8.486;2023-03-21T07:38:42;9.40;;;6.20;;
10403;SDS011;5248;47.374;8.486;2023-03-21T07:41:09;6.47;;;5.40;;
10403;SDS011;5248;47.374;8.486;2023-03-21T07:43:36;7.97;;;5.10;;
10403;SDS011;5248;47.374;8.486;2023-03-21T07:46:04;6.20;;;5.60;;
10403;SDS011;5248;47.374;8.486;2023-03-21T07:48:31;6.50;;;4.70;;
10403;SDS011;5248;47.374;8.486;2023-03-21T07:50:57;5.40;;;4.90;;
10403;SDS011;5248;47.374;8.486;2023-03-21T07:53:26;7.30;;;5.10;;
10403;SDS011;5248;47.374;8.486;2023-03-21T07:55:54;6.50;;;4.97;;
10403;SDS011;5248;47.374;8.486;2023-03-21T07:58:21;9.50;;;5.50;;
10403;SDS011;5248;47.374;8.486;2023-03-21T08:00:47;6.47;;;5.20;;
10403;SDS011;5248;47.374;8.486;2023-03-21T08:03:14;5.57;;;5.07;;
10403;SDS011;5248;47.374;8.486;2023-03-21T08:05:41;5.03;;;4.60;;
10403;SDS011;5248;47.374;8.486;2023-03-21T08:08:08;5.23;;;4.73;;
10403;SDS011;5248;47.374;8.486;2023-03-21T08:10:34;5.73;;;4.97;;
10403;SDS011;5248;47.374;8.486;2023-03-21T08:13:03;7.50;;;5.00;;
10403;SDS011;5248;47.374;8.486;2023-03-21T08:15:31;5.37;;;4.87;;
10403;SDS011;5248;47.374;8.486;2023-03-21T08:17:57;6.20;;;4.30;;
10403;SDS011;5248;47.374;8.486;2023-03-21T08:20:24;5.03;;;4.53;;
10403;SDS011;5248;47.374;8.486;2023-03-21T08:22:51;5.20;;;4.70;;
10403;SDS011;5248;47.374;8.486;2023-03-21T08:25:18;5.97;;;4.53;;
10403;SDS011;5248;47.374;8.486;2023-03-21T08:27:48;5.00;;;4.57;;
10403;SDS011;5248;47.374;8.486;2023-03-21T08:30:17;4.70;;;4.07;;
10403;SDS011;5248;47.374;8.486;2023-03-21T08:32:45;4.93;;;4.43;;
10403;SDS011;5248;47.374;8.486;2023-03-21T08:35:13;4.53;;;4.13;;
10403;SDS011;5248;47.374;8.486;2023-03-21T08:37:40;6.47;;;4.73;;
10403;SDS011;5248;47.374;8.486;2023-03-21T08:40:08;4.97;;;4.47;;
10403;SDS011;5248;47.374;8.486;2023-03-21T08:42:37;4.37;;;4.07;;
10403;SDS011;5248;47.374;8.486;2023-03-21T08:45:04;4.50;;;4.10;;
10403;SDS011;5248;47.374;8.486;2023-03-21T08:47:35;4.77;;;4.30;;
10403;SDS011;5248;47.374;8.486;2023-03-21T08:50:03;4.20;;;3.80;;
10403;SDS011;5248;47.374;8.486;2023-03-21T08:52:31;6.37;;;4.63;;
10403;SDS011;5248;47.374;8.486;2023-03-21T08:55:00;5.03;;;4.33;;
10403;SDS011;5248;47.374;8.486;2023-03-21T08:57:28;4.60;;;3.73;;
10403;SDS011;5248;47.374;8.486;2023-03-21T08:59:55;5.03;;;4.50;;
10403;SDS011;5248;47.374;8.486;2023-03-21T09:02:22;4.20;;;3.90;;
10403;SDS011;5248;47.374;8.486;2023-03-21T09:04:50;4.53;;;4.13;;
10403;SDS011;5248;47.374;8.486;2023-03-21T09:07:18;3.83;;;3.47;;
10403;SDS011;5248;47.374;8.486;2023-03-21T09:09:50;3.87;;;3.57;;
10403;SDS011;5248;47.374;8.486;2023-03-21T09:12:18;4.37;;;4.07;;
10403;SDS011;5248;47.374;8.486;2023-03-21T09:14:45;5.63;;;4.13;;
10403;SDS011;5248;47.374;8.486;2023-03-21T09:17:12;5.23;;;4.00;;
10403;SDS011;5248;47.374;8.486;2023-03-21T09:19:38;5.73;;;4.30;;
10403;SDS011;5248;47.374;8.486;2023-03-21T09:22:07;4.83;;;4.10;;
10403;SDS011;5248;47.374;8.486;2023-03-21T09:24:38;6.00;;;4.25;;
10403;SDS011;5248;47.374;8.486;2023-03-21T09:27:05;5.90;;;5.30;;
10403;SDS011;5248;47.374;8.486;2023-03-21T09:29:32;7.00;;;4.80;;
10403;SDS011;5248;47.374;8.486;2023-03-21T09:31:59;4.83;;;4.53;;
10403;SDS011;5248;47.374;8.486;2023-03-21T09:34:25;3.00;;;2.80;;
10403;SDS011;5248;47.374;8.486;2023-03-21T09:36:52;2.70;;;2.45;;
10403;SDS011;5248;47.374;8.486;2023-03-21T09:39:22;3.13;;;2.42;;
10403;SDS011;5248;47.374;8.486;2023-03-21T09:41:56;2.58;;;2.47;;
10403;SDS011;5248;47.374;8.486;2023-03-21T09:44:33;2.67;;;2.47;;
10403;SDS011;5248;47.374;8.486;2023-03-21T09:47:09;2.67;;;2.58;;
10403;SDS011;5248;47.374;8.486;2023-03-21T09:49:45;2.60;;;2.50;;
10403;SDS011;5248;47.374;8.486;2023-03-21T09:52:16;2.40;;;2.30;;
10403;SDS011;5248;47.374;8.486;2023-03-21T09:54:46;2.90;;;2.63;;
10403;SDS011;5248;47.374;8.486;2023-03-21T09:57:17;3.20;;;3.00;;
10403;SDS011;5248;47.374;8.486;2023-03-21T09:59:50;3.00;;;2.80;;
10403;SDS011;5248;47.374;8.486;2023-03-21T10:02:20;3.65;;;3.10;;
10403;SDS011;5248;47.374;8.486;2023-03-21T10:05:01;3.00;;;2.80;;
10403;SDS011;5248;47.374;8.486;2023-03-21T10:07:33;3.00;;;2.80;;
10403;SDS011;5248;47.374;8.486;2023-03-21T10:10:06;3.63;;;2.93;;
10403;SDS011;5248;47.374;8.486;2023-03-21T10:12:35;3.20;;;3.00;;
10403;SDS011;5248;47.374;8.486;2023-03-21T10:15:04;3.10;;;2.90;;
10403;SDS011;5248;47.374;8.486;2023-03-21T10:17:37;3.95;;;3.10;;
10403;SDS011;5248;47.374;8.486;2023-03-21T10:20:10;3.50;;;3.30;;
10403;SDS011;5248;47.374;8.486;2023-03-21T10:22:38;3.20;;;2.90;;
10403;SDS011;5248;47.374;8.486;2023-03-21T10:25:07;2.97;;;2.78;;
10403;SDS011;5248;47.374;8.486;2023-03-21T10:27:37;2.95;;;2.75;;
10403;SDS011;5248;47.374;8.486;2023-03-21T10:30:04;3.40;;;3.10;;
10403;SDS011;5248;47.374;8.486;2023-03-21T10:32:32;3.30;;;3.05;;
10403;SDS011;5248;47.374;8.486;2023-03-21T10:34:59;3.55;;;3.25;;
10403;SDS011;5248;47.374;8.486;2023-03-21T10:37:28;3.53;;;3.22;;
10403;SDS011;5248;47.374;8.486;2023-03-21T10:39:56;3.33;;;3.00;;
10403;SDS011;5248;47.374;8.486;2023-03-21T10:42:27;3.55;;;3.28;;
10403;SDS011;5248;47.374;8.486;2023-03-21T10:44:57;3.45;;;3.25;;
10403;SDS011;5248;47.374;8.486;2023-03-21T10:47:26;3.30;;;3.05;;
10403;SDS011;5248;47.374;8.486;2023-03-21T10:50:00;2.80;;;2.70;;
10403;SDS011;5248;47.374;8.486;2023-03-21T10:52:27;2.80;;;2.60;;
10403;SDS011;5248;47.374;8.486;2023-03-21T10:55:04;3.08;;;2.88;;
10403;SDS011;5248;47.374;8.486;2023-03-21T10:57:38;3.00;;;2.80;;
10403;SDS011;5248;47.374;8.486;2023-03-21T11:00:09;3.22;;;2.92;;
10403;SDS011;5248;47.374;8.486;2023-03-21T11:02:46;3.28;;;3.05;;
10403;SDS011;5248;47.374;8.486;2023-03-21T11:05:16;3.10;;;2.90;;
10403;SDS011;5248;47.374;8.486;2023-03-21T11:07:46;3.20;;;2.80;;
10403;SDS011;5248;47.374;8.486;2023-03-21T11:10:14;3.30;;;3.10;;
10403;SDS011;5248;47.374;8.486;2023-03-21T11:12:45;2.70;;;2.60;;
10403;SDS011;5248;47.374;8.486;2023-03-21T11:15:23;3.45;;;3.17;;
10403;SDS011;5248;47.374;8.486;2023-03-21T11:17:52;3.20;;;3.00;;
10403;SDS011;5248;47.374;8.486;2023-03-21T11:20:19;3.30;;;3.00;;
10403;SDS011;5248;47.374;8.486;2023-03-21T11:22:47;3.35;;;3.10;;
10403;SDS011;5248;47.374;8.486;2023-03-21T11:25:19;3.17;;;2.83;;
10403;SDS011;5248;47.374;8.486;2023-03-21T11:27:51;3.03;;;2.75;;
10403;SDS011;5248;47.374;8.486;2023-03-21T11:30:20;3.15;;;2.90;;
10403;SDS011;5248;47.374;8.486;2023-03-21T11:32:50;3.25;;;2.95;;
10403;SDS011;5248;47.374;8.486;2023-03-21T11:35:17;2.85;;;2.65;;
10403;SDS011;5248;47.374;8.486;2023-03-21T11:37:53;2.72;;;2.60;;
10403;SDS011;5248;47.374;8.486;2023-03-21T11:40:21;2.83;;;2.63;;
10403;SDS011;5248;47.374;8.486;2023-03-21T11:42:51;2.70;;;2.50;;
10403;SDS011;5248;47.374;8.486;2023-03-21T11:45:19;2.53;;;2.38;;
10403;SDS011;5248;47.374;8.486;2023-03-21T11:47:47;2.70;;;2.50;;
10403;SDS011;5248;47.374;8.486;2023-03-21T11:50:16;2.90;;;2.70;;
10403;SDS011;5248;47.374;8.486;2023-03-21T11:52:47;2.78;;;2.47;;
10403;SDS011;5248;47.374;8.486;2023-03-21T11:58:07;3.35;;;3.15;;
10403;SDS011;5248;47.374;8.486;2023-03-21T12:00:43;3.05;;;2.60;;
10403;SDS011;5248;47.374;8.486;2023-03-21T12:06:18;2.90;;;2.70;;
10403;SDS011;5248;47.374;8.486;2023-03-21T12:08:53;3.15;;;2.95;;
10403;SDS011;5248;47.374;8.486;2023-03-21T12:11:31;2.67;;;2.47;;
10403;SDS011;5248;47.374;8.486;2023-03-21T12:14:07;3.05;;;2.85;;
10403;SDS011;5248;47.374;8.486;2023-03-21T12:16:46;2.90;;;2.70;;
10403;SDS011;5248;47.374;8.486;2023-03-21T12:19:21;2.53;;;2.33;;
10403;SDS011;5248;47.374;8.486;2023-03-21T12:21:59;2.35;;;2.25;;
10403;SDS011;5248;47.374;8.486;2023-03-21T12:24:30;2.60;;;2.40;;
10403;SDS011;5248;47.374;8.486;2023-03-21T12:26:58;2.53;;;2.40;;
10403;SDS011;5248;47.374;8.486;2023-03-21T12:29:44;2.35;;;2.25;;
10403;SDS011;5248;47.374;8.486;2023-03-21T12:32:20;2.60;;;2.40;;
10403;SDS011;5248;47.374;8.486;2023-03-21T12:35:03;2.40;;;2.30;;
10403;SDS011;5248;47.374;8.486;2023-03-21T12:37:38;2.55;;;2.40;;
10403;SDS011;5248;47.374;8.486;2023-03-21T12:40:16;2.95;;;2.60;;
10403;SDS011;5248;47.374;8.486;2023-03-21T12:42:51;2.63;;;2.42;;
10403;SDS011;5248;47.374;8.486;2023-03-21T12:45:25;2.22;;;2.13;;
10403;SDS011;5248;47.374;8.486;2023-03-21T12:47:56;2.80;;;2.60;;
10403;SDS011;5248;47.374;8.486;2023-03-21T12:50:28;2.13;;;2.03;;
10403;SDS011;5248;47.374;8.486;2023-03-21T12:53:03;2.03;;;1.92;;
10403;SDS011;5248;47.374;8.486;2023-03-21T12:55:35;2.03;;;1.92;;
10403;SDS011;5248;47.374;8.486;2023-03-21T12:58:03;2.20;;;2.10;;
10403;SDS011;5248;47.374;8.486;2023-03-21T13:00:34;2.28;;;2.17;;
10403;SDS011;5248;47.374;8.486;2023-03-21T13:03:04;1.98;;;1.83;;
10403;SDS011;5248;47.374;8.486;2023-03-21T13:05:37;2.20;;;2.00;;
10403;SDS011;5248;47.374;8.486;2023-03-21T13:08:05;1.95;;;1.85;;
10403;SDS011;5248;47.374;8.486;2023-03-21T13:10:34;2.00;;;1.90;;
10403;SDS011;5248;47.374;8.486;2023-03-21T13:13:05;2.28;;;2.17;;
10403;SDS011;5248;47.374;8.486;2023-03-21T13:15:49;2.28;;;2.17;;
10403;SDS011;5248;47.374;8.486;2023-03-21T13:18:30;1.95;;;1.85;;
10403;SDS011;5248;47.374;8.486;2023-03-21T13:21:00;2.10;;;2.00;;
10403;SDS011;5248;47.374;8.486;2023-03-21T13:23:39;2.20;;;2.10;;
10403;SDS011;5248;47.374;8.486;2023-03-21T13:26:07;2.33;;;2.17;;
10403;SDS011;5248;47.374;8.486;2023-03-21T13:28:37;2.00;;;1.90;;
10403;SDS011;5248;47.374;8.486;2023-03-21T13:31:15;2.08;;;1.98;;
10403;SDS011;5248;47.374;8.486;2023-03-21T13:33:44;2.10;;;2.00;;
10403;SDS011;5248;47.374;8.486;2023-03-21T13:36:12;2.20;;;2.10;;
10403;SDS011;5248;47.374;8.486;2023-03-21T13:38:40;2.40;;;2.30;;
10403;SDS011;5248;47.374;8.486;2023-03-21T13:41:10;2.53;;;2.33;;
10403;SDS011;5248;47.374;8.486;2023-03-21T13:43:42;2.45;;;2.25;;
10403;SDS011;5248;47.374;8.486;2023-03-21T13:46:12;2.25;;;2.15;;
10403;SDS011;5248;47.374;8.486;2023-03-21T13:49:01;2.30;;;2.20;;
10403;SDS011;5248;47.374;8.486;2023-03-21T13:51:43;2.55;;;2.30;;
10403;SDS011;5248;47.374;8.486;2023-03-21T13:54:21;2.55;;;2.35;;
10403;SDS011;5248;47.374;8.486;2023-03-21T13:56:58;3.17;;;2.25;;
10403;SDS011;5248;47.374;8.486;2023-03-21T13:59:36;2.47;;;2.20;;
10403;SDS011;5248;47.374;8.486;2023-03-21T14:02:20;2.80;;;2.60;;
10403;SDS011;5248;47.374;8.486;2023-03-21T14:05:00;2.60;;;2.40;;
10403;SDS011;5248;47.374;8.486;2023-03-21T14:07:30;2.45;;;2.35;;
10403;SDS011;5248;47.374;8.486;2023-03-21T14:10:01;3.13;;;2.88;;
10403;SDS011;5248;47.374;8.486;2023-03-21T14:12:34;3.63;;;2.58;;
10403;SDS011;5248;47.374;8.486;2023-03-21T14:15:03;2.60;;;2.40;;
10403;SDS011;5248;47.374;8.486;2023-03-21T14:17:33;2.35;;;2.25;;
10403;SDS011;5248;47.374;8.486;2023-03-21T14:20:02;3.47;;;3.22;;
10403;SDS011;5248;47.374;8.486;2023-03-21T14:22:38;3.42;;;3.17;;
10403;SDS011;5248;47.374;8.486;2023-03-21T14:25:06;2.70;;;2.60;;
10403;SDS011;5248;47.374;8.486;2023-03-21T14:27:37;2.45;;;2.33;;
10403;SDS011;5248;47.374;8.486;2023-03-21T14:30:04;3.42;;;3.13;;
10403;SDS011;5248;47.374;8.486;2023-03-21T14:32:31;3.80;;;3.38;;
10403;SDS011;5248;47.374;8.486;2023-03-21T14:35:02;4.45;;;3.03;;
10403;SDS011;5248;47.374;8.486;2023-03-21T14:37:30;2.83;;;2.70;;
10403;SDS011;5248;47.374;8.486;2023-03-21T14:39:59;2.80;;;2.65;;
10403;SDS011;5248;47.374;8.486;2023-03-21T14:42:26;3.75;;;2.85;;
10403;SDS011;5248;47.374;8.486;2023-03-21T14:44:53;2.72;;;2.53;;
10403;SDS011;5248;47.374;8.486;2023-03-21T14:47:24;3.95;;;2.30;;
10403;SDS011;5248;47.374;8.486;2023-03-21T14:49:55;2.45;;;2.35;;
10403;SDS011;5248;47.374;8.486;2023-03-21T14:52:23;2.05;;;1.95;;
10403;SDS011;5248;47.374;8.486;2023-03-21T14:54:52;1.60;;;1.50;;
10403;SDS011;5248;47.374;8.486;2023-03-21T14:57:22;1.98;;;1.88;;
10403;SDS011;5248;47.374;8.486;2023-03-21T14:59:53;2.60;;;2.35;;
10403;SDS011;5248;47.374;8.486;2023-03-21T15:02:21;3.55;;;3.25;;
10403;SDS011;5248;47.374;8.486;2023-03-21T15:04:49;1.75;;;1.50;;
10403;SDS011;5248;47.374;8.486;2023-03-21T15:07:27;2.20;;;1.95;;
10403;SDS011;5248;47.374;8.486;2023-03-21T15:09:54;1.40;;;1.38;;
10403;SDS011;5248;47.374;8.486;2023-03-21T15:12:25;2.75;;;1.98;;
10403;SDS011;5248;47.374;8.486;2023-03-21T15:14:53;1.92;;;1.50;;
10403;SDS011;5248;47.374;8.486;2023-03-21T15:17:20;1.75;;;1.65;;
10403;SDS011;5248;47.374;8.486;2023-03-21T15:19:48;1.70;;;1.60;;
10403;SDS011;5248;47.374;8.486;2023-03-21T15:22:15;1.33;;;1.33;;
10403;SDS011;5248;47.374;8.486;2023-03-21T15:24:46;1.70;;;1.60;;
10403;SDS011;5248;47.374;8.486;2023-03-21T15:27:17;1.80;;;1.70;;
10403;SDS011;5248;47.374;8.486;2023-03-21T15:29:44;1.30;;;1.30;;
10403;SDS011;5248;47.374;8.486;2023-03-21T15:32:12;2.50;;;2.30;;
10403;SDS011;5248;47.374;8.486;2023-03-21T15:34:41;2.55;;;2.35;;
10403;SDS011;5248;47.374;8.486;2023-03-21T15:37:13;1.95;;;1.85;;
10403;SDS011;5248;47.374;8.486;2023-03-21T15:39:44;1.92;;;1.83;;